createdAt,value
2023-05-07T00:02:18.558Z,3.58
2023-05-07T00:05:24.162Z,4.80
2023-05-07T00:08:32.834Z,4.55
2023-05-07T00:11:40.215Z,3.72
2023-05-07T00:14:47.173Z,4.07
2023-05-07T00:17:53.460Z,3.60
2023-05-07T00:21:01.963Z,4.78
2023-05-07T00:24:13.567Z,3.85
2023-05-07T00:27:20.713Z,3.90
2023-05-07T00:30:28.595Z,4.10
2023-05-07T00:33:35.666Z,4.97
2023-05-07T00:36:47.923Z,4.65
2023-05-07T00:39:57.829Z,4.68
2023-05-07T00:43:03.137Z,4.40
2023-05-07T00:46:10.508Z,5.25
2023-05-07T00:49:15.775Z,4.78
2023-05-07T00:52:27.350Z,4.95
2023-05-07T00:55:35.531Z,4.22
2023-05-07T00:58:46.697Z,4.32
2023-05-07T01:01:57.651Z,3.63
2023-05-07T01:05:06.515Z,3.83
2023-05-07T01:08:12.157Z,3.78
2023-05-07T01:11:25.044Z,3.78
2023-05-07T01:14:34.479Z,4.10
2023-05-07T01:17:40.899Z,5.40
2023-05-07T01:20:46.102Z,5.05
2023-05-07T01:23:55.989Z,5.72
2023-05-07T01:27:02.732Z,5.00
2023-05-07T01:30:09.562Z,4.57
2023-05-07T01:33:18.385Z,5.40
2023-05-07T01:36:27.189Z,4.18
2023-05-07T01:39:36.544Z,3.97
2023-05-07T01:42:42.361Z,4.65
2023-05-07T01:45:50.371Z,4.00
2023-05-07T01:48:56.169Z,4.07
2023-05-07T01:52:01.510Z,4.03
2023-05-07T01:55:10.959Z,4.78
2023-05-07T01:58:17.314Z,4.50
2023-05-07T02:01:23.608Z,4.10
2023-05-07T02:04:30.576Z,4.80
2023-05-07T02:07:38.169Z,5.78
2023-05-07T02:10:48.428Z,5.22
2023-05-07T02:13:54.674Z,5.10
2023-05-07T02:16:59.765Z,4.72
2023-05-07T02:20:07.547Z,5.60
2023-05-07T02:23:12.708Z,4.15
2023-05-07T02:26:21.150Z,4.47
2023-05-07T02:29:26.483Z,4.30
2023-05-07T02:32:33.544Z,4.70
2023-05-07T02:35:42.998Z,5.43
2023-05-07T02:38:51.217Z,4.40
2023-05-07T02:41:59.835Z,4.72
2023-05-07T02:45:06.603Z,4.60
2023-05-07T02:48:14.398Z,4.20
2023-05-07T02:51:23.308Z,4.72
2023-05-07T02:54:29.222Z,4.88
2023-05-07T02:57:37.900Z,4.47
2023-05-07T03:00:42.959Z,5.65
2023-05-07T03:03:50.361Z,5.10
2023-05-07T03:06:56.067Z,4.95
2023-05-07T03:10:03.331Z,5.97
2023-05-07T03:13:11.994Z,4.75
2023-05-07T03:16:17.645Z,4.28
2023-05-07T03:19:23.514Z,4.30
2023-05-07T03:22:30.346Z,5.03
2023-05-07T03:25:37.318Z,5.60
2023-05-07T03:28:45.709Z,4.65
2023-05-07T03:31:50.766Z,5.07
2023-05-07T03:34:56.973Z,4.43
2023-05-07T03:38:02.025Z,4.43
2023-05-07T03:41:09.513Z,4.72
2023-05-07T03:44:18.645Z,4.03
2023-05-07T03:47:25.513Z,4.28
2023-05-07T03:50:30.708Z,4.03
2023-05-07T03:53:38.135Z,3.85
2023-05-07T03:56:50.757Z,4.60
2023-05-07T03:59:58.745Z,4.10
2023-05-07T04:03:05.126Z,3.95
2023-05-07T04:06:11.076Z,4.03
2023-05-07T04:09:17.943Z,3.45
2023-05-07T04:12:24.890Z,5.97
2023-05-07T04:15:32.490Z,5.03
2023-05-07T04:21:47.843Z,3.90
2023-05-07T04:24:54.187Z,4.60
2023-05-07T04:27:59.889Z,4.00
2023-05-07T04:31:08.714Z,4.30
2023-05-07T04:34:15.856Z,4.20
2023-05-07T04:37:22.644Z,4.90
2023-05-07T04:40:27.865Z,4.28
2023-05-07T04:43:36.365Z,4.45
2023-05-07T04:46:44.013Z,4.32
2023-05-07T04:49:49.861Z,3.63
2023-05-07T04:52:54.823Z,4.57
2023-05-07T04:56:00.974Z,4.70
2023-05-07T04:59:05.926Z,4.18
2023-05-07T05:02:13.905Z,3.85
2023-05-07T05:05:20.081Z,4.40
2023-05-07T05:08:28.157Z,4.15
2023-05-07T05:11:37.239Z,3.80
2023-05-07T05:14:44.197Z,4.72
2023-05-07T05:17:55.553Z,4.10
2023-05-07T05:21:02.818Z,4.37
2023-05-07T05:24:10.490Z,3.85
2023-05-07T05:27:16.835Z,4.20
2023-05-07T05:30:23.189Z,4.57
2023-05-07T05:33:32.390Z,3.97
2023-05-07T05:36:37.941Z,3.97
2023-05-07T05:39:44.115Z,4.07
2023-05-07T05:42:53.215Z,4.20
2023-05-07T05:46:02.028Z,4.13
2023-05-07T05:49:10.948Z,3.85
2023-05-07T05:52:18.121Z,3.55
2023-05-07T05:55:24.797Z,4.00
2023-05-07T05:58:31.616Z,4.78
2023-05-07T06:01:37.195Z,3.63
2023-05-07T06:04:46.587Z,3.97
2023-05-07T06:07:52.231Z,4.70
2023-05-07T06:10:58.155Z,4.47
2023-05-07T06:14:03.589Z,4.55
2023-05-07T06:17:09.308Z,4.00
2023-05-07T06:20:21.097Z,3.60
2023-05-07T06:23:26.488Z,4.10
2023-05-07T06:26:31.529Z,4.32
2023-05-07T06:29:36.840Z,4.25
2023-05-07T06:32:41.969Z,4.78
2023-05-07T06:35:50.208Z,3.83
2023-05-07T06:38:57.310Z,3.92
2023-05-07T06:42:05.933Z,4.75
2023-05-07T06:45:14.635Z,4.13
2023-05-07T06:48:20.684Z,3.90
2023-05-07T06:51:31.937Z,4.68
2023-05-07T06:54:39.322Z,4.20
2023-05-07T06:57:47.697Z,4.40
2023-05-07T07:00:53.201Z,3.92
2023-05-07T07:03:58.262Z,4.00
2023-05-07T07:07:07.716Z,3.72
2023-05-07T07:10:13.479Z,3.80
2023-05-07T07:13:19.346Z,4.38
2023-05-07T07:16:27.885Z,4.45
2023-05-07T07:19:36.132Z,4.45
2023-05-07T07:22:45.676Z,4.00
2023-05-07T07:25:51.217Z,4.32
2023-05-07T07:28:56.297Z,4.00
2023-05-07T07:32:02.243Z,3.75
2023-05-07T07:35:08.020Z,4.35
2023-05-07T07:38:16.114Z,4.22
2023-05-07T07:45:12.642Z,5.18
2023-05-07T07:48:18.646Z,4.93
2023-05-07T07:51:27.829Z,5.32
2023-05-07T07:54:37.118Z,5.45
2023-05-07T07:57:42.467Z,5.32
2023-05-07T08:00:48.968Z,5.50
2023-05-07T08:03:54.463Z,5.65
2023-05-07T08:07:00.337Z,5.43
2023-05-07T08:10:13.074Z,5.72
2023-05-07T08:13:20.123Z,5.45
2023-05-07T08:16:26.411Z,5.35
2023-05-07T08:19:32.674Z,5.10
2023-05-07T08:22:41.493Z,6.05
2023-05-07T08:25:53.990Z,5.75
2023-05-07T08:28:59.305Z,5.70
2023-05-07T08:32:06.035Z,5.50
2023-05-07T08:35:12.216Z,5.55
2023-05-07T08:38:17.771Z,5.32
2023-05-07T08:41:26.007Z,5.40
2023-05-07T08:44:33.084Z,4.65
2023-05-07T08:47:41.281Z,5.72
2023-05-07T08:50:51.841Z,5.63
2023-05-07T08:53:58.898Z,5.50
2023-05-07T08:57:08.805Z,4.43
2023-05-07T09:00:14.733Z,5.78
2023-05-07T09:03:21.945Z,5.50
2023-05-07T09:06:27.877Z,5.00
2023-05-07T09:09:33.216Z,5.07
2023-05-07T09:12:42.167Z,4.82
2023-05-07T09:15:48.046Z,4.72
2023-05-07T09:18:55.810Z,5.22
2023-05-07T09:22:04.742Z,5.63
2023-05-07T09:25:10.771Z,4.65
2023-05-07T09:28:19.912Z,5.07
2023-05-07T09:31:27.283Z,5.15
2023-05-07T09:34:35.783Z,5.00
2023-05-07T09:37:45.452Z,4.90
2023-05-07T09:40:51.576Z,5.80
2023-05-07T09:47:22.727Z,6.25
2023-05-07T09:50:30.850Z,6.30
2023-05-07T09:53:37.671Z,5.55
2023-05-07T09:56:43.608Z,6.43
2023-05-07T09:59:53.432Z,4.97
2023-05-07T10:03:01.985Z,5.00
2023-05-07T10:06:07.654Z,5.10
2023-05-07T10:09:13.525Z,5.07
2023-05-07T10:12:18.879Z,4.45
2023-05-07T10:15:25.932Z,4.43
2023-05-07T10:18:34.796Z,4.47
2023-05-07T10:21:41.167Z,4.15
2023-05-07T10:24:50.170Z,4.45
2023-05-07T10:27:58.923Z,4.75
2023-05-07T10:31:09.934Z,4.72
2023-05-07T10:34:20.333Z,4.65
2023-05-07T10:37:25.878Z,4.75
2023-05-07T10:40:31.654Z,4.45
2023-05-07T10:43:46.356Z,4.50
2023-05-07T10:47:07.342Z,3.88
2023-05-07T10:50:27.571Z,5.13
2023-05-07T10:53:32.969Z,4.07
2023-05-07T10:56:39.143Z,4.13
2023-05-07T10:59:49.328Z,4.80
2023-05-07T11:03:13.780Z,4.37
2023-05-07T11:06:21.894Z,4.10
2023-05-07T11:09:29.893Z,3.58
2023-05-07T11:12:51.869Z,3.90
2023-05-07T11:15:57.077Z,4.80
2023-05-07T11:19:02.698Z,3.50
2023-05-07T11:22:30.557Z,3.53
2023-05-07T11:25:35.900Z,3.83
2023-05-07T11:28:43.062Z,3.50
2023-05-07T11:31:59.289Z,3.63
2023-05-07T11:35:04.974Z,3.50
2023-05-07T11:38:15.402Z,3.05
2023-05-07T11:41:44.165Z,3.95
2023-05-07T11:44:50.388Z,4.13
2023-05-07T11:47:55.905Z,3.95
2023-05-07T11:51:04.900Z,3.60
2023-05-07T11:54:14.842Z,3.50
2023-05-07T11:57:22.834Z,3.63
2023-05-07T12:00:28.085Z,3.83
2023-05-07T12:03:36.223Z,3.17
2023-05-07T12:06:42.590Z,3.67
2023-05-07T12:09:53.835Z,4.43
2023-05-07T12:13:06.983Z,3.95
2023-05-07T12:16:13.271Z,4.07
2023-05-07T12:19:18.671Z,4.50
2023-05-07T12:22:26.126Z,4.00
2023-05-07T12:25:34.523Z,3.63
2023-05-07T12:28:45.420Z,4.53
2023-05-07T12:31:50.857Z,3.25
2023-05-07T12:34:56.412Z,3.92
2023-05-07T12:38:05.787Z,3.60
2023-05-07T12:41:15.470Z,3.25
2023-05-07T12:44:20.854Z,4.75
2023-05-07T12:47:26.260Z,3.13
2023-05-07T12:50:35.787Z,3.28
2023-05-07T12:53:44.125Z,3.92
2023-05-07T12:56:52.516Z,3.10
2023-05-07T13:00:02.656Z,2.92
2023-05-07T13:03:08.008Z,3.17
2023-05-07T13:06:14.654Z,2.65
2023-05-07T13:09:20.858Z,3.75
2023-05-07T13:12:29.514Z,3.78
2023-05-07T13:15:35.266Z,3.55
2023-05-07T13:18:42.380Z,3.42
2023-05-07T13:21:47.802Z,3.70
2023-05-07T13:24:56.991Z,4.05
2023-05-07T13:28:10.609Z,3.40
2023-05-07T13:31:16.750Z,3.50
2023-05-07T13:34:24.225Z,3.35
2023-05-07T13:37:29.910Z,2.85
2023-05-07T13:40:35.038Z,3.25
2023-05-07T13:43:43.400Z,3.17
2023-05-07T13:46:51.650Z,3.20
2023-05-07T13:49:58.677Z,2.75
2023-05-07T13:53:07.098Z,2.70
2023-05-07T13:56:16.798Z,3.47
2023-05-07T13:59:25.348Z,3.20
2023-05-07T14:02:32.368Z,2.85
2023-05-07T14:05:37.618Z,3.15
2023-05-07T14:08:43.081Z,3.58
2023-05-07T14:11:48.880Z,2.88
2023-05-07T14:14:57.642Z,3.08
2023-05-07T14:18:04.205Z,3.30
2023-05-07T14:21:20.031Z,3.05
2023-05-07T14:24:37.706Z,3.20
2023-05-07T14:27:46.984Z,3.17
2023-05-07T14:30:54.752Z,2.50
2023-05-07T14:34:01.133Z,2.97
2023-05-07T14:37:06.123Z,2.83
2023-05-07T14:40:12.707Z,2.60
2023-05-07T14:43:19.461Z,3.63
2023-05-07T14:46:27.943Z,2.97
2023-05-07T14:49:33.217Z,3.30
2023-05-07T14:52:41.119Z,2.80
2023-05-07T14:55:46.194Z,3.00
2023-05-07T14:58:52.246Z,2.83
2023-05-07T15:02:00.093Z,2.60
2023-05-07T15:05:06.279Z,2.70
2023-05-07T15:08:11.418Z,2.63
2023-05-07T15:11:16.861Z,2.78
2023-05-07T15:14:23.685Z,2.58
2023-05-07T15:17:31.823Z,2.92
2023-05-07T15:20:36.960Z,2.60
2023-05-07T15:23:42.684Z,2.47
2023-05-07T15:26:47.695Z,2.35
2023-05-07T15:30:02.601Z,2.15
2023-05-07T15:33:12.259Z,2.50
2023-05-07T15:36:21.658Z,2.58
2023-05-07T15:39:28.610Z,2.33
2023-05-07T15:42:35.357Z,2.33
2023-05-07T15:45:42.938Z,2.97
2023-05-07T15:48:53.923Z,3.72
2023-05-07T15:51:59.241Z,2.30
2023-05-07T15:55:04.883Z,2.30
2023-05-07T15:58:11.347Z,2.33
2023-05-07T16:01:17.130Z,2.15
2023-05-07T16:04:24.890Z,2.10
2023-05-07T16:07:40.972Z,2.80
2023-05-07T16:10:46.096Z,2.85
2023-05-07T16:13:51.443Z,2.17
2023-05-07T16:16:57.221Z,2.30
2023-05-07T16:20:06.593Z,3.33
2023-05-07T16:23:13.415Z,1.85
2023-05-07T16:26:18.930Z,2.22
2023-05-07T16:29:24.369Z,2.25
2023-05-07T16:32:30.640Z,2.38
2023-05-07T16:35:38.758Z,2.53
2023-05-07T16:38:44.291Z,2.17
2023-05-07T16:41:53.317Z,2.40
2023-05-07T16:44:59.050Z,2.70
2023-05-07T16:48:05.770Z,2.80
2023-05-07T16:51:14.286Z,2.28
2023-05-07T16:54:19.627Z,2.88
2023-05-07T16:57:25.233Z,2.60
2023-05-07T17:00:42.059Z,2.25
2023-05-07T17:03:55.226Z,2.40
2023-05-07T17:07:02.875Z,2.50
2023-05-07T17:10:10.059Z,2.50
2023-05-07T17:13:16.193Z,2.75
2023-05-07T17:16:22.165Z,2.45
2023-05-07T17:19:29.485Z,2.83
2023-05-07T17:22:37.512Z,2.65
2023-05-07T17:25:45.734Z,2.45
2023-05-07T17:28:52.532Z,2.78
2023-05-07T17:31:57.720Z,1.95
2023-05-07T17:35:03.477Z,2.60
2023-05-07T17:38:11.107Z,3.00
2023-05-07T17:41:16.497Z,2.60
2023-05-07T17:44:21.831Z,2.40
2023-05-07T17:47:29.987Z,2.83
2023-05-07T17:50:35.408Z,2.85
2023-05-07T17:53:45.494Z,3.17
2023-05-07T17:57:01.111Z,3.17
2023-05-07T18:00:10.251Z,3.00
2023-05-07T18:03:15.653Z,2.65
2023-05-07T18:06:25.376Z,2.35
2023-05-07T18:09:35.555Z,2.70
2023-05-07T18:12:41.252Z,3.72
2023-05-07T18:15:48.820Z,2.63
2023-05-07T18:18:54.490Z,2.97
2023-05-07T18:21:59.631Z,3.30
2023-05-07T18:25:11.476Z,2.90
2023-05-07T18:28:17.260Z,3.17
2023-05-07T18:31:24.103Z,3.53
2023-05-07T18:34:32.066Z,3.03
2023-05-07T18:37:37.580Z,4.00
2023-05-07T18:40:48.372Z,3.85
2023-05-07T18:43:54.745Z,3.22
2023-05-07T18:47:00.391Z,4.03
2023-05-07T18:50:08.296Z,4.05
2023-05-07T18:53:15.252Z,3.83
2023-05-07T18:56:24.973Z,4.32
2023-05-07T19:02:50.131Z,4.18
2023-05-07T19:05:56.082Z,5.05
2023-05-07T19:09:02.813Z,4.95
2023-05-07T19:12:21.993Z,5.32
2023-05-07T19:15:27.781Z,5.80
2023-05-07T19:18:33.584Z,7.03
2023-05-07T19:21:39.235Z,8.20
2023-05-07T19:24:45.030Z,6.80
2023-05-07T19:27:52.865Z,5.95
2023-05-07T19:30:58.278Z,4.43
2023-05-07T19:34:07.505Z,3.65
2023-05-07T19:37:13.447Z,4.28
2023-05-07T19:40:21.485Z,4.90
2023-05-07T19:43:31.209Z,5.43
2023-05-07T19:46:37.412Z,3.83
2023-05-07T19:49:43.256Z,3.20
2023-05-07T19:52:48.648Z,3.60
2023-05-07T19:55:58.555Z,3.63
2023-05-07T19:59:07.426Z,3.38
2023-05-07T20:02:13.720Z,2.85
2023-05-07T20:05:23.952Z,3.13
2023-05-07T20:08:33.268Z,4.13
2023-05-07T20:11:39.661Z,3.25
2023-05-07T20:14:48.261Z,3.20
2023-05-07T20:17:54.314Z,2.95
2023-05-07T20:21:00.682Z,2.67
2023-05-07T20:24:07.629Z,3.28
2023-05-07T20:27:14.348Z,3.20
2023-05-07T20:30:24.733Z,3.85
2023-05-07T20:33:30.781Z,3.55
2023-05-07T20:36:36.268Z,3.30
2023-05-07T20:39:42.248Z,2.85
2023-05-07T20:42:47.650Z,3.03
2023-05-07T20:46:05.873Z,3.58
2023-05-07T20:49:11.335Z,3.88
2023-05-07T20:52:18.666Z,3.20
2023-05-07T20:55:25.482Z,3.72
2023-05-07T20:58:33.768Z,2.97
2023-05-07T21:01:43.021Z,2.70
2023-05-07T21:04:51.693Z,3.25
2023-05-07T21:07:57.107Z,2.88
2023-05-07T21:11:12.323Z,3.05
2023-05-07T21:14:17.952Z,2.80
2023-05-07T21:17:26.954Z,3.05
2023-05-07T21:20:33.683Z,2.83
2023-05-07T21:23:40.131Z,2.80
2023-05-07T21:26:45.552Z,3.28
2023-05-07T21:29:52.414Z,3.28
2023-05-07T21:33:02.073Z,3.10
2023-05-07T21:36:08.335Z,3.17
2023-05-07T21:39:16.279Z,3.38
2023-05-07T21:42:23.833Z,3.28
2023-05-07T21:45:29.250Z,3.33
2023-05-07T21:48:39.482Z,2.95
2023-05-07T21:51:44.492Z,3.25
2023-05-07T21:54:51.158Z,2.95
2023-05-07T22:01:16.664Z,3.60
2023-05-07T22:04:25.016Z,3.80
2023-05-07T22:07:30.398Z,4.05
2023-05-07T22:10:35.472Z,4.25
2023-05-07T22:13:41.406Z,4.25
2023-05-07T22:16:46.882Z,3.90
2023-05-07T22:19:59.120Z,3.50
2023-05-07T22:23:04.479Z,3.80
2023-05-07T22:26:14.616Z,3.70
2023-05-07T22:29:21.326Z,4.18
2023-05-07T22:32:28.661Z,3.63
2023-05-07T22:35:36.705Z,3.85
2023-05-07T22:38:42.754Z,3.78
2023-05-07T22:41:47.916Z,3.60
2023-05-07T22:44:54.928Z,3.97
2023-05-07T22:48:00.061Z,3.75
2023-05-07T22:51:08.182Z,3.28
2023-05-07T22:54:14.969Z,4.10
2023-05-07T22:57:20.298Z,3.80
2023-05-07T23:00:27.231Z,3.53
2023-05-07T23:03:35.398Z,4.10
2023-05-07T23:06:45.004Z,3.80
2023-05-07T23:09:50.362Z,3.63
2023-05-07T23:12:55.670Z,3.30
2023-05-07T23:16:01.879Z,3.50
2023-05-07T23:19:07.438Z,2.90
2023-05-07T23:22:16.136Z,3.55
2023-05-07T23:25:21.312Z,3.80
2023-05-07T23:28:28.437Z,2.90
2023-05-07T23:31:34.989Z,3.22
2023-05-07T23:34:40.334Z,3.05
2023-05-07T23:37:47.937Z,4.07
2023-05-07T23:40:56.114Z,3.10
2023-05-07T23:44:02.458Z,3.42
2023-05-07T23:47:10.342Z,2.83
2023-05-07T23:50:15.977Z,3.55
2023-05-07T23:53:24.447Z,3.22
2023-05-07T23:56:29.481Z,3.45
2023-05-07T23:59:35.955Z,3.10
